Bremen, Kansas
Current Conditions -  °F | °C
As of 11:15 AM on Sunday 21 Dec 2014 (Local Time) from KMYZ Reporting Station
Overcast Overcast  
Wind Chill: 33°   Ceiling: 700
Heat Index: 41°   Visibility: 7mi
Dew Point: 37°   Wind: 14mph
Humidity: 87%   Direction: 180°S
Pressure: 29.86"   Gusts: 23mph
Location:  39.9°N, 96.79°W
Report Text: KMYZ 211715Z AUTO 18012G20KT 7SM OVC007 05/03 A2986 RMK AO2
Loading
Personal Weather Stations






























Interactive Weather Map New forecast layout! Learn more

10-Day Weather Forecast

Advertisements
Track Severe Weather on mobile